Time;durP1;ratioP1;P1;durP2;ratioP2;P2;SDS_P1;SDS_P2;PMS_P1;PMS_P2;Temp;Humidity;BMP_temperature;BMP_pressure;BME280_temperature;BME280_humidity;BME280_pressure;Samples;Min_cycle;Max_cycle;Signal;HPM_P1;HPM_P2
2021/08/31 00:01:39;;;;;;;28.85;16.17;;;;;;;23.20;100.00;100099.84;1774965;80;21552;-89
2021/08/31 00:04:06;;;;;;;26.33;15.85;;;;;;;23.19;100.00;100100.36;1752741;80;21053;-87
2021/08/31 00:06:33;;;;;;;21.27;15.60;;;;;;;23.22;100.00;100107.09;1753486;80;21901;-87
2021/08/31 00:09:01;;;;;;;24.80;15.25;;;;;;;23.23;100.00;100104.21;1753085;80;21109;-88
2021/08/31 00:11:28;;;;;;;31.50;16.90;;;;;;;23.25;100.00;100101.33;1753312;80;21011;-87
2021/08/31 00:13:55;;;;;;;28.60;15.53;;;;;;;23.26;100.00;100105.13;1753358;80;21010;-87
2021/08/31 00:16:22;;;;;;;27.13;15.75;;;;;;;23.27;100.00;100104.11;1753135;80;21006;-87
2021/08/31 00:18:50;;;;;;;23.22;15.53;;;;;;;23.24;100.00;100107.66;1753020;80;21328;-87
2021/08/31 00:21:18;;;;;;;19.87;15.08;;;;;;;23.23;100.00;100106.06;1775186;80;21117;-87
2021/08/31 00:23:45;;;;;;;24.43;15.85;;;;;;;23.22;100.00;100102.58;1753352;80;21148;-88
2021/08/31 00:26:13;;;;;;;22.10;14.75;;;;;;;23.21;100.00;100104.13;1753148;80;20986;-88
2021/08/31 00:28:41;;;;;;;25.88;14.65;;;;;;;23.21;100.00;100106.25;1774962;80;21101;-88
2021/08/31 00:31:08;;;;;;;29.27;15.43;;;;;;;23.23;100.00;100102.88;1753133;80;21022;-88
2021/08/31 00:33:35;;;;;;;36.33;15.60;;;;;;;23.25;100.00;100105.31;1752909;80;21050;-87
2021/08/31 00:36:04;;;;;;;29.95;14.93;;;;;;;23.25;100.00;100107.97;1752989;80;21026;-87
2021/08/31 00:38:32;;;;;;;34.60;15.35;;;;;;;23.24;100.00;100099.70;1753131;80;21010;-89
2021/08/31 00:41:00;;;;;;;20.88;15.60;;;;;;;23.23;100.00;100100.23;1753034;80;21144;-88
2021/08/31 00:43:27;;;;;;;24.35;15.38;;;;;;;23.23;100.00;100100.75;1753047;80;21153;-87
2021/08/31 00:45:56;;;;;;;25.08;15.20;;;;;;;23.22;100.00;100101.25;1752971;80;20994;-86
2021/08/31 00:48:24;;;;;;;21.20;15.15;;;;;;;23.20;100.00;100099.84;1753004;80;21069;-87
2021/08/31 00:50:56;;;;;;;24.52;15.68;;;;;;;23.19;100.00;100097.70;1753186;80;21061;-87
2021/08/31 00:53:23;;;;;;;25.97;15.03;;;;;;;23.19;100.00;100094.22;1753066;80;21587;-89
2021/08/31 00:55:51;;;;;;;22.60;14.50;;;;;;;23.18;100.00;100096.08;1753331;80;21747;-87
2021/08/31 00:58:19;;;;;;;24.52;14.70;;;;;;;23.18;100.00;100096.57;1745958;80;21009;-88
2021/08/31 01:00:46;;;;;;;21.33;14.93;;;;;;;23.18;100.00;100092.59;1753444;80;21132;-88
2021/08/31 01:03:15;;;;;;;29.72;15.55;;;;;;;23.18;100.00;100092.59;1746131;80;21027;-87
2021/08/31 01:05:42;;;;;;;32.20;15.63;;;;;;;23.16;100.00;100092.78;1753567;80;21049;-88
2021/08/31 01:08:11;;;;;;;25.27;14.43;;;;;;;23.15;100.00;100093.27;1774911;80;21054;-87
2021/08/31 01:10:40;;;;;;;23.90;15.08;;;;;;;23.11;100.00;100091.28;1753739;80;21037;-89
2021/08/31 01:13:07;;;;;;;25.55;15.15;;;;;;;23.04;100.00;100095.77;1753039;80;21014;-88
2021/08/31 01:15:35;;;;;;;23.98;15.45;;;;;;;22.93;100.00;100086.62;1753309;80;21033;-88
2021/08/31 01:18:20;;;;;;;26.02;14.80;;;;;;;22.83;100.00;100093.19;1753083;80;21587;-88
2021/08/31 01:20:54;;;;;;;28.12;15.58;;;;;;;22.74;100.00;100084.34;1753274;80;22207;-86
2021/08/31 01:23:22;;;;;;;33.55;15.80;;;;;;;22.60;100.00;100081.73;1751702;80;21543;-87
2021/08/31 01:25:53;;;;;;;35.00;16.07;;;;;;;22.50;100.00;100090.14;1774653;80;21007;-88
2021/08/31 01:28:33;;;;;;;23.47;15.60;;;;;;;22.43;100.00;100084.52;1752587;80;21018;-87
2021/08/31 01:31:02;;;;;;;28.07;16.35;;;;;;;22.36;100.00;100080.52;1752929;80;21734;-86
2021/08/31 01:33:33;;;;;;;28.00;16.42;;;;;;;22.28;100.00;100090.84;1774818;80;21133;-86
2021/08/31 01:36:23;;;;;;;19.77;16.17;;;;;;;22.21;100.00;100090.84;1775028;80;21042;-89
2021/08/31 01:38:57;;;;;;;27.75;16.57;;;;;;;22.17;100.00;100086.98;1762801;80;21007;-87
2021/08/31 01:41:26;;;;;;;27.60;17.52;;;;;;;22.12;100.00;100083.30;1753377;80;21057;-87
2021/08/31 01:43:53;;;;;;;21.52;16.65;;;;;;;22.07;100.00;100085.23;1728561;80;21050;-86
2021/08/31 01:46:22;;;;;;;27.35;17.17;;;;;;;22.04;100.00;100077.69;1774908;80;21003;-87
2021/08/31 01:48:49;;;;;;;26.68;16.87;;;;;;;22.01;100.00;100076.27;1753031;80;21490;-87
2021/08/31 01:51:18;;;;;;;30.75;17.55;;;;;;;21.97;100.00;100080.35;1774945;80;21088;-86
2021/08/31 01:53:46;;;;;;;28.50;17.05;;;;;;;21.92;100.00;100081.45;1752916;80;21564;-86
2021/08/31 01:56:13;;;;;;;22.10;16.80;;;;;;;21.86;100.00;100080.45;1753277;80;21066;-87
2021/08/31 01:58:40;;;;;;;31.30;17.85;;;;;;;21.83;100.00;100085.34;1775021;80;21153;-86
2021/08/31 02:01:07;;;;;;;27.90;17.10;;;;;;;21.82;100.00;100083.19;1753248;80;21006;-87
2021/08/31 02:03:34;;;;;;;24.07;16.57;;;;;;;21.81;100.00;100076.25;1753215;80;21014;-87
2021/08/31 02:06:01;;;;;;;27.90;17.73;;;;;;;21.80;100.00;100081.77;1774950;80;20990;-87
2021/08/31 02:08:28;;;;;;;29.05;18.07;;;;;;;21.79;100.00;100079.63;1775139;80;21121;-86
2021/08/31 02:10:56;;;;;;;29.15;17.57;;;;;;;21.84;100.00;100075.03;1753507;80;21481;-88
2021/08/31 02:13:23;;;;;;;27.50;17.62;;;;;;;21.87;100.00;100074.63;1753038;80;21045;-88
2021/08/31 02:15:50;;;;;;;33.38;17.55;;;;;;;21.89;100.00;100072.60;1775548;80;21153;-87
2021/08/31 02:18:17;;;;;;;25.52;17.90;;;;;;;21.90;100.00;100068.94;1775054;80;21104;-86
2021/08/31 02:20:45;;;;;;;30.20;18.07;;;;;;;21.92;100.00;100073.50;1753208;80;21476;-87
2021/08/31 02:23:12;;;;;;;28.80;17.55;;;;;;;21.91;100.00;100074.55;1753182;80;21184;-88
2021/08/31 02:25:39;;;;;;;30.27;17.80;;;;;;;21.90;100.00;100076.89;1754012;80;21006;-87
2021/08/31 02:28:07;;;;;;;37.98;17.45;;;;;;;21.89;100.00;100072.60;1726615;82;21513;-86
2021/08/31 02:30:34;;;;;;;27.40;18.15;;;;;;;21.87;100.00;100065.36;1749132;80;22192;-88
2021/08/31 02:33:02;;;;;;;26.65;18.55;;;;;;;21.84;100.00;100059.12;1757899;80;21560;-88
2021/08/31 02:35:30;;;;;;;39.70;18.62;;;;;;;21.82;100.00;100065.16;1732406;80;21061;-85
2021/08/31 02:37:57;;;;;;;33.63;19.42;;;;;;;21.73;100.00;100066.68;1774746;80;21128;-86
2021/08/31 02:40:24;;;;;;;26.70;17.10;;;;;;;21.69;100.00;100066.77;1774732;80;21002;-88
2021/08/31 02:42:53;;;;;;;28.32;16.87;;;;;;;21.64;100.00;100065.23;1752960;80;21092;-87
2021/08/31 02:45:20;;;;;;;27.52;17.23;;;;;;;21.57;100.00;100064.39;1752777;80;21062;-86
2021/08/31 02:47:48;;;;;;;23.83;16.55;;;;;;;21.50;100.00;100058.27;1745602;80;21940;-88
2021/08/31 02:50:15;;;;;;;26.35;15.85;;;;;;;21.44;100.00;100060.68;1744061;82;21018;-86
2021/08/31 02:52:44;;;;;;;25.62;16.07;;;;;;;21.39;100.00;100057.83;1729974;82;21057;-88
2021/08/31 02:55:12;;;;;;;29.57;16.75;;;;;;;21.35;100.00;100062.39;1713458;81;22349;-88
2021/08/31 02:57:40;;;;;;;22.37;15.95;;;;;;;21.31;100.00;100060.66;1752055;80;21109;-86
2021/08/31 03:00:17;;;;;;;22.27;15.75;;;;;;;21.30;100.00;100066.97;1774787;80;21117;-86
2021/08/31 03:02:42;;;;;;;23.02;16.40;;;;;;;21.30;100.00;100060.34;1749660;80;21100;-89
2021/08/31 03:05:09;;;;;;;25.55;16.97;;;;;;;21.30;100.00;100059.02;1752869;80;21010;-89
2021/08/31 03:07:38;;;;;;;38.78;17.95;;;;;;;21.30;100.00;100056.38;1753116;80;21085;-89
2021/08/31 03:10:06;;;;;;;53.85;17.67;;;;;;;21.34;100.00;100054.14;1752998;80;21105;-89
2021/08/31 03:12:33;;;;;;;28.80;16.30;;;;;;;21.39;100.00;100053.05;1753370;80;21705;-87
2021/08/31 03:15:02;;;;;;;27.13;16.67;;;;;;;21.43;100.00;100059.56;1774911;80;21102;-88
2021/08/31 03:17:32;;;;;;;28.12;16.70;;;;;;;21.44;100.00;100063.33;1777110;80;21034;-87
2021/08/31 03:19:58;;;;;;;28.85;16.35;;;;;;;21.46;100.00;100063.15;1752883;80;21631;-88
2021/08/31 03:22:25;;;;;;;31.10;18.67;;;;;;;21.50;100.00;100065.69;1753277;80;21125;-88
2021/08/31 03:24:55;;;;;;;41.65;23.95;;;;;;;21.54;100.00;100069.58;1774731;80;21132;-86
2021/08/31 03:27:23;;;;;;;43.02;21.90;;;;;;;21.57;100.00;100061.73;1752989;80;21042;-88
2021/08/31 03:29:52;;;;;;;31.40;18.35;;;;;;;21.56;100.00;100069.38;1774856;80;21041;-87
2021/08/31 03:32:19;;;;;;;28.15;15.90;;;;;;;21.56;100.00;100070.17;1774831;80;21038;-88
2021/08/31 03:34:46;;;;;;;23.40;15.35;;;;;;;21.55;100.00;100065.09;1753031;80;21128;-82
2021/08/31 03:37:13;;;;;;;24.70;15.83;;;;;;;21.51;100.00;100064.67;1753032;80;21039;-85
2021/08/31 03:39:41;;;;;;;20.40;15.23;;;;;;;21.47;100.00;100066.60;1774798;80;20999;-86
2021/08/31 03:42:08;;;;;;;20.05;14.68;;;;;;;21.42;100.00;100069.84;1752853;80;21552;-85
2021/08/31 03:44:35;;;;;;;24.47;13.80;;;;;;;21.35;100.00;100071.14;1753092;80;21033;-85
2021/08/31 03:47:03;;;;;;;30.68;14.63;;;;;;;21.25;100.00;100079.99;1740465;81;21026;-84
2021/08/31 03:49:31;;;;;;;22.17;14.78;;;;;;;21.14;100.00;100072.61;1743975;81;21786;-85
2021/08/31 03:51:58;;;;;;;20.97;13.98;;;;;;;21.06;100.00;100082.36;1733604;81;21050;-83
2021/08/31 03:54:26;;;;;;;21.15;14.80;;;;;;;21.00;100.00;100088.45;1733585;81;21030;-84
2021/08/31 03:56:53;;;;;;;36.85;14.90;;;;;;;20.93;100.00;100097.67;1744206;82;20959;-84
2021/08/31 03:59:21;;;;;;;22.55;15.58;;;;;;;20.91;100.00;100093.07;1753096;80;21098;-86
2021/08/31 04:01:48;;;;;;;26.37;14.78;;;;;;;20.90;100.00;100091.95;1752548;80;21105;-84
2021/08/31 04:04:15;;;;;;;27.70;15.15;;;;;;;20.88;100.00;100096.13;1753206;80;21412;-87
2021/08/31 04:06:42;;;;;;;20.90;14.53;;;;;;;20.89;100.00;100100.91;1747223;82;21088;-82
2021/08/31 04:09:09;;;;;;;25.32;14.83;;;;;;;20.89;100.00;100102.23;1723394;82;21085;-85
2021/08/31 04:11:38;;;;;;;26.25;15.85;;;;;;;20.91;100.00;100098.89;1744145;81;21120;-82
2021/08/31 04:14:05;;;;;;;25.17;14.55;;;;;;;20.93;100.00;100097.67;1744200;82;22015;-82
2021/08/31 04:16:32;;;;;;;23.70;15.30;;;;;;;20.94;100.00;100094.02;1722961;82;21567;-82
2021/08/31 04:18:59;;;;;;;30.60;17.48;;;;;;;20.98;100.00;100089.66;1723457;82;21085;-82
2021/08/31 04:21:26;;;;;;;25.37;14.75;;;;;;;20.99;100.00;100088.66;1723018;82;21595;-82
2021/08/31 04:23:54;;;;;;;22.90;14.68;;;;;;;21.01;100.00;100094.05;1723090;82;21560;-81
2021/08/31 04:26:21;;;;;;;19.80;15.15;;;;;;;21.03;100.00;100088.55;1723104;82;21655;-81
2021/08/31 04:28:49;;;;;;;24.72;15.63;;;;;;;21.05;100.00;100088.66;1722920;82;21541;-84
2021/08/31 04:31:17;;;;;;;27.37;16.52;;;;;;;21.06;100.00;100086.33;1744154;81;21535;-82
2021/08/31 04:33:45;;;;;;;54.18;19.17;;;;;;;21.07;100.00;100091.94;1723156;82;21038;-82
2021/08/31 04:36:12;;;;;;;27.20;16.95;;;;;;;21.09;100.00;100088.59;1744210;81;21041;-85
2021/08/31 04:38:39;;;;;;;28.57;15.93;;;;;;;21.12;100.00;100093.48;1727604;82;21108;-84
2021/08/31 04:41:07;;;;;;;34.92;15.63;;;;;;;21.16;100.00;100095.22;1757710;80;21081;-83
2021/08/31 04:43:34;;;;;;;21.82;14.18;;;;;;;21.21;100.00;100095.95;1722774;82;21029;-86
2021/08/31 04:46:01;;;;;;;22.05;14.70;;;;;;;21.24;100.00;100094.24;1722860;82;21552;-85
2021/08/31 04:48:28;;;;;;;20.00;14.18;;;;;;;21.27;100.00;100089.89;1722610;82;21053;-83
2021/08/31 04:50:55;;;;;;;25.90;14.68;;;;;;;21.30;100.00;100093.96;1744239;82;21748;-79
2021/08/31 04:53:23;;;;;;;22.00;14.18;;;;;;;21.34;100.00;100092.53;1744100;82;20986;-83
2021/08/31 04:55:51;;;;;;;15.93;12.65;;;;;;;21.36;100.00;100095.28;1722951;82;20986;-85
2021/08/31 04:58:18;;;;;;;20.37;14.15;;;;;;;21.40;100.00;100082.46;1748337;80;21591;-82
2021/08/31 05:00:45;;;;;;;22.65;14.00;;;;;;;21.42;100.00;100082.59;1752991;80;21049;-81
2021/08/31 05:03:13;;;;;;;18.15;13.15;;;;;;;21.47;100.00;100087.78;1767304;80;21122;-83
2021/08/31 05:05:42;;;;;;;19.45;13.80;;;;;;;21.51;100.00;100089.03;1750145;80;21091;-81
2021/08/31 05:08:09;;;;;;;19.15;13.65;;;;;;;21.58;100.00;100086.72;1733890;80;21072;-83
2021/08/31 05:10:38;;;;;;;18.52;13.38;;;;;;;21.67;100.00;100078.06;1750005;80;21044;-82
2021/08/31 05:13:06;;;;;;;22.05;13.90;;;;;;;21.74;100.00;100078.92;1755482;80;21096;-79
2021/08/31 05:15:33;;;;;;;21.02;14.45;;;;;;;21.81;100.00;100083.40;1744445;80;21841;-80
2021/08/31 05:18:00;;;;;;;25.43;13.78;;;;;;;21.88;100.00;100094.30;1733973;81;21158;-81
2021/08/31 05:20:28;;;;;;;18.65;13.55;;;;;;;21.96;100.00;100094.63;1734153;80;21009;-82
2021/08/31 05:22:55;;;;;;;17.48;13.35;;;;;;;22.06;100.00;100106.97;1744640;80;21036;-79
2021/08/31 05:25:22;;;;;;;26.65;13.83;;;;;;;22.18;100.00;100099.71;1745856;80;21078;-81
2021/08/31 05:27:49;;;;;;;19.70;13.53;;;;;;;22.30;100.00;100097.26;1739190;80;21034;-81
2021/08/31 05:30:19;;;;;;;25.08;14.73;;;;;;;22.43;100.00;100093.80;1752967;80;20927;-82
2021/08/31 05:32:48;;;;;;;18.00;14.50;;;;;;;22.55;100.00;100093.50;1757370;80;21425;-80
2021/08/31 05:35:15;;;;;;;22.00;14.28;;;;;;;22.66;100.00;100097.34;1737710;80;21151;-81
2021/08/31 05:37:42;;;;;;;22.58;14.78;;;;;;;22.76;100.00;100087.62;1748928;80;21061;-82
2021/08/31 05:40:10;;;;;;;18.92;14.68;;;;;;;22.86;100.00;100088.00;1775044;80;22244;-81
2021/08/31 05:42:37;;;;;;;21.80;13.93;;;;;;;22.94;100.00;100089.09;1775275;80;21168;-82
2021/08/31 05:45:05;;;;;;;22.32;14.25;;;;;;;23.05;100.00;100085.46;1753174;80;21018;-82
2021/08/31 05:47:33;;;;;;;20.15;14.73;;;;;;;23.14;100.00;100084.20;1753083;80;21003;-80
2021/08/31 05:50:00;;;;;;;26.20;15.13;;;;;;;23.23;100.00;100084.29;1753360;80;21066;-80
2021/08/31 05:52:28;;;;;;;19.32;15.30;;;;;;;23.34;100.00;100079.34;1753079;80;21100;-80
2021/08/31 05:54:58;;;;;;;23.07;15.65;;;;;;;23.43;100.00;100075.41;1753185;80;21556;-81
2021/08/31 05:57:24;;;;;;;27.25;15.72;;;;;;;23.50;100.00;100077.52;1749457;80;21042;-81
2021/08/31 05:59:52;;;;;;;22.95;15.95;;;;;;;23.56;100.00;100073.16;1753124;80;20998;-80
2021/08/31 06:02:19;;;;;;;25.02;16.52;;;;;;;23.61;100.00;100068.84;1746660;80;21124;-80
2021/08/31 06:04:46;;;;;;;28.35;18.95;;;;;;;23.69;100.00;100080.23;1717773;80;21182;-81
2021/08/31 06:07:14;;;;;;;32.23;21.60;;;;;;;23.76;100.00;100081.00;1759953;80;21528;-81
2021/08/31 06:09:41;;;;;;;33.55;22.37;;;;;;;23.85;100.00;100087.68;1710527;80;21041;-81
2021/08/31 06:12:13;;;;;;;32.25;23.47;;;;;;;23.93;100.00;100095.42;1738521;81;21089;-81
2021/08/31 06:14:42;;;;;;;32.42;22.45;;;;;;;24.02;100.00;100103.96;1733782;81;20995;-81
2021/08/31 06:17:10;;;;;;;29.35;21.82;;;;;;;24.10;100.00;100103.69;1733408;81;21048;-82
2021/08/31 06:19:39;;;;;;;29.90;20.15;;;;;;;24.20;100.00;100110.34;1734320;82;21053;-81
2021/08/31 06:22:08;;;;;;;27.27;17.70;;;;;;;24.30;100.00;100108.53;1733279;80;21553;-82
2021/08/31 06:24:35;;;;;;;24.50;17.57;;;;;;;24.41;100.00;100116.61;1734033;81;21132;-80
2021/08/31 06:27:03;;;;;;;27.82;17.67;;;;;;;24.51;100.00;100119.30;1733872;81;21049;-81
2021/08/31 06:29:31;;;;;;;25.05;17.02;;;;;;;24.58;100.00;100119.51;1734128;81;21390;-81
2021/08/31 06:31:58;;;;;;;29.50;16.85;;;;;;;24.67;100.00;100118.75;1733725;81;21090;-82
2021/08/31 06:34:25;;;;;;;39.05;19.25;;;;;;;24.78;100.00;100124.35;1744523;82;21093;-81
2021/08/31 06:36:52;;;;;;;26.73;17.87;;;;;;;24.86;100.00;100122.23;1744326;80;21054;-82
2021/08/31 06:39:19;;;;;;;30.95;18.90;;;;;;;24.95;100.00;100124.59;1734097;80;21062;-79
2021/08/31 06:41:46;;;;;;;39.45;20.02;;;;;;;25.02;100.00;100118.67;1733601;81;21995;-81
2021/08/31 06:44:14;;;;;;;30.97;20.48;;;;;;;25.07;100.00;100119.33;1734455;82;21046;-82
2021/08/31 06:46:41;;;;;;;32.70;19.20;;;;;;;25.13;100.00;100111.77;1736291;80;21046;-80
2021/08/31 06:49:08;;;;;;;30.05;20.70;;;;;;;25.23;100.00;100123.22;1761999;80;21080;-81
2021/08/31 06:51:35;;;;;;;36.25;24.07;;;;;;;25.32;100.00;100122.67;1753168;80;21618;-82
2021/08/31 06:54:02;;;;;;;33.33;23.00;;;;;;;25.41;100.00;100124.55;1763995;80;21674;-81
2021/08/31 06:56:30;;;;;;;42.80;25.00;;;;;;;25.49;100.00;100124.73;1763989;80;21042;-80
2021/08/31 06:58:57;;;;;;;34.23;22.93;;;;;;;25.57;100.00;100130.28;1764083;80;21636;-82
2021/08/31 07:01:24;;;;;;;40.38;26.75;;;;;;;25.60;100.00;100128.51;1764114;80;21516;-83
2021/08/31 07:03:51;;;;;;;48.00;29.42;;;;;;;25.62;100.00;100136.56;1764265;80;21069;-82
2021/08/31 07:06:20;;;;;;;43.23;30.27;;;;;;;25.61;100.00;100130.11;1770667;80;21042;-84
2021/08/31 07:08:48;;;;;;;45.92;29.92;;;;;;;25.63;100.00;100138.20;1763991;80;21042;-83
2021/08/31 07:11:15;;;;;;;44.83;29.15;;;;;;;25.67;100.00;100138.55;1764388;80;21112;-84
2021/08/31 07:13:42;;;;;;;43.28;29.15;;;;;;;25.68;100.00;100140.16;1764064;80;21536;-82
2021/08/31 07:16:09;;;;;;;45.80;28.23;;;;;;;25.67;100.00;100131.89;1764432;80;21021;-83
2021/08/31 07:18:37;;;;;;;49.23;26.87;;;;;;;25.64;100.00;100137.66;1774646;80;21026;-88
2021/08/31 07:21:04;;;;;;;41.95;25.70;;;;;;;25.61;100.00;100135.44;1775287;80;21042;-84
2021/08/31 07:23:31;;;;;;;37.20;25.65;;;;;;;25.61;100.00;100140.27;1764227;80;21683;-81
2021/08/31 07:25:59;;;;;;;42.88;26.50;;;;;;;25.64;100.00;100135.00;1764372;80;21089;-83
2021/08/31 07:28:26;;;;;;;45.92;26.82;;;;;;;25.66;100.00;100128.93;1764100;80;21602;-81
2021/08/31 07:30:53;;;;;;;46.30;26.42;;;;;;;25.65;100.00;100133.42;1764488;80;20995;-81
2021/08/31 07:33:21;;;;;;;37.90;27.07;;;;;;;25.73;100.00;100136.80;1775122;80;21486;-81
2021/08/31 07:35:48;;;;;;;38.67;25.27;;;;;;;25.82;100.00;100141.61;1764200;80;21034;-82
2021/08/31 07:38:15;;;;;;;44.27;26.30;;;;;;;25.95;100.00;100139.77;1774958;80;21551;-82
2021/08/31 07:40:42;;;;;;;49.35;25.92;;;;;;;26.03;100.00;100140.77;1764057;80;20990;-81
2021/08/31 07:43:09;;;;;;;42.27;26.42;;;;;;;26.08;100.00;100142.25;1775027;80;21819;-81
2021/08/31 07:45:37;;;;;;;47.08;28.52;;;;;;;26.09;100.00;100140.41;1764105;80;20963;-80
2021/08/31 07:48:09;;;;;;;40.08;25.95;;;;;;;26.07;100.00;100135.28;1756752;80;21078;-81
2021/08/31 07:50:36;;;;;;;49.08;26.90;;;;;;;26.12;100.00;100137.27;1748132;80;21039;-80
2021/08/31 07:53:03;;;;;;;43.68;26.93;;;;;;;26.20;100.00;100135.59;1774919;80;21575;-82
2021/08/31 07:55:31;;;;;;;44.00;27.87;;;;;;;26.34;100.00;100133.52;1752813;80;21886;-81
2021/08/31 07:57:58;;;;;;;44.38;28.83;;;;;;;26.43;100.00;100138.00;1753040;80;21027;-81
2021/08/31 08:00:26;;;;;;;42.27;28.75;;;;;;;26.49;100.00;100132.23;1728651;80;21014;-82
2021/08/31 08:02:53;;;;;;;43.85;28.85;;;;;;;26.47;100.00;100137.81;1751945;80;21457;-81
2021/08/31 08:05:20;;;;;;;43.40;27.67;;;;;;;26.44;100.00;100140.42;1751253;80;21006;-82
2021/08/31 08:07:48;;;;;;;41.33;27.50;;;;;;;26.43;100.00;100138.80;1753246;80;21091;-81
2021/08/31 08:10:15;;;;;;;43.65;27.40;;;;;;;26.47;100.00;100137.01;1748065;80;21595;-81
2021/08/31 08:12:43;;;;;;;37.40;26.73;;;;;;;26.50;100.00;100134.69;1752974;80;21568;-81
2021/08/31 08:15:12;;;;;;;32.60;24.63;;;;;;;26.60;100.00;100132.75;1753055;80;21082;-82
2021/08/31 08:17:40;;;;;;;27.52;23.25;;;;;;;26.67;100.00;100137.45;1753326;80;21454;-81
2021/08/31 08:20:10;;;;;;;27.27;22.55;;;;;;;26.67;100.00;100129.97;1774678;80;20995;-82
2021/08/31 08:22:38;;;;;;;32.63;22.65;;;;;;;26.68;100.00;100143.08;1728600;80;21007;-81
2021/08/31 08:25:06;;;;;;;33.60;21.82;;;;;;;26.72;100.00;100130.87;1752920;80;21508;-82
2021/08/31 08:27:33;;;;;;;33.35;23.47;;;;;;;26.84;100.00;100128.20;1743876;80;21057;-83
2021/08/31 08:30:01;;;;;;;31.52;22.32;;;;;;;26.97;100.00;100135.16;1753159;80;21488;-86
2021/08/31 08:32:29;;;;;;;27.15;22.62;;;;;;;27.02;100.00;100136.61;1753354;80;21856;-84
2021/08/31 08:34:56;;;;;;;31.40;23.45;;;;;;;26.96;100.00;100134.86;1774930;80;21627;-88
2021/08/31 08:37:25;;;;;;;29.60;22.40;;;;;;;26.92;100.00;100135.86;1752763;80;20981;-84
2021/08/31 08:39:53;;;;;;;30.95;23.35;;;;;;;26.91;100.00;100131.59;1751777;80;21014;-84
2021/08/31 08:42:20;;;;;;;27.27;23.73;;;;;;;26.91;100.00;100134.77;1774941;80;21058;-84
2021/08/31 08:44:47;;;;;;;32.95;23.05;;;;;;;26.92;100.00;100137.73;1775291;80;21803;-83
2021/08/31 08:47:14;;;;;;;26.15;22.25;;;;;;;26.98;100.00;100143.45;1722854;82;21041;-80
2021/08/31 08:49:45;;;;;;;26.50;23.07;;;;;;;27.06;100.00;100141.75;1723493;82;21053;-86
2021/08/31 08:52:12;;;;;;;28.00;22.48;;;;;;;27.16;100.00;100143.80;1744310;82;21002;-86
2021/08/31 08:54:41;;;;;;;37.83;25.65;;;;;;;27.23;100.00;100141.84;1720382;82;21053;-83
2021/08/31 08:57:09;;;;;;;31.27;24.35;;;;;;;27.35;100.00;100151.14;1723235;82;21149;-80
2021/08/31 08:59:38;;;;;;;26.10;22.77;;;;;;;27.47;100.00;100143.11;1737650;80;21460;-85
2021/08/31 09:02:06;;;;;;;31.80;26.70;;;;;;;27.48;100.00;100144.70;1736637;80;21096;-81
2021/08/31 09:04:46;;;;;;;27.40;24.27;;;;;;;27.47;100.00;100148.97;1759939;80;21110;-82
2021/08/31 09:07:22;;;;;;;26.30;23.52;;;;;;;27.48;100.00;100146.05;1700162;83;20956;-84
2021/08/31 09:09:52;;;;;;;25.85;23.18;;;;;;;27.60;100.00;100147.33;1660586;82;21124;-83
2021/08/31 09:12:34;;;;;;;23.98;21.42;;;;;;;27.64;100.00;100137.78;1703157;82;21053;-82
2021/08/31 09:15:30;;;;;;;27.52;21.62;;;;;;;27.71;100.00;100145.67;1681505;83;21101;-87
2021/08/31 09:18:11;;;;;;;26.95;23.05;;;;;;;27.72;100.00;100155.31;1681701;84;21508;-84
2021/08/31 09:20:47;;;;;;;;;;;;;;;27.67;100.00;100154.70;1684105;84;21069;-82
2021/08/31 09:23:31;;;;;;;27.60;23.50;;;;;;;27.68;100.00;100145.59;1679569;82;21057;-83
2021/08/31 09:26:07;;;;;;;23.90;21.27;;;;;;;27.75;100.00;100146.80;1681299;83;21513;-85
2021/08/31 09:28:38;;;;;;;23.62;20.95;;;;;;;27.80;100.00;100150.88;1683119;84;21065;-82
2021/08/31 09:31:17;;;;;;;23.85;20.92;;;;;;;27.88;100.00;100147.01;1702948;82;21536;-82
2021/08/31 09:33:54;;;;;;;21.75;19.55;;;;;;;27.92;100.00;100156.19;1703212;82;21603;-85
2021/08/31 09:36:24;;;;;;;22.15;20.00;;;;;;;27.96;100.00;100155.17;1682948;84;21109;-85
2021/08/31 09:39:01;;;;;;;22.35;20.02;;;;;;;28.05;100.00;100159.59;1703135;82;22019;-84
2021/08/31 09:41:40;;;;;;;27.55;20.37;;;;;;;28.09;100.00;100157.55;1706422;83;21021;-88
2021/08/31 09:44:23;;;;;;;22.52;20.23;;;;;;;28.00;100.00;100153.09;1702902;82;21611;-82
2021/08/31 09:47:00;;;;;;;22.80;20.37;;;;;;;27.89;100.00;100149.97;1702522;82;21113;-83
2021/08/31 09:49:41;;;;;;;23.73;20.50;;;;;;;27.77;100.00;100169.27;1674848;83;21815;-82
2021/08/31 09:52:15;;;;;;;24.57;21.50;;;;;;;27.64;100.00;100162.39;1711066;83;21132;-81
2021/08/31 09:54:46;;;;;;;23.80;21.17;;;;;;;27.54;100.00;100163.00;1706946;82;21144;-83
2021/08/31 09:57:36;;;;;;;24.43;22.00;;;;;;;27.54;100.00;100161.66;1705145;82;21058;-83
2021/08/31 10:00:13;;;;;;;29.67;26.77;;;;;;;27.58;100.00;100169.50;1665839;84;21543;-83
2021/08/31 10:02:42;;;;;;;28.25;25.57;;;;;;;27.54;100.00;100163.00;1666723;84;22270;-85
2021/08/31 10:05:09;;;;;;;32.05;28.67;;;;;;;27.53;100.00;100173.39;1760582;80;21098;-80
2021/08/31 10:07:38;;;;;;;33.83;30.20;;;;;;;27.49;100.00;100176.28;1727005;80;21055;-83
2021/08/31 10:10:07;;;;;;;38.45;34.63;;;;;;;27.42;100.00;100177.75;1753107;80;21008;-83
2021/08/31 10:12:35;;;;;;;39.05;34.83;;;;;;;27.40;100.00;100183.84;1753188;80;21055;-86
2021/08/31 10:15:05;;;;;;;41.68;37.33;;;;;;;27.33;100.00;100185.31;1774967;80;21032;-82
2021/08/31 10:17:33;;;;;;;42.60;36.98;;;;;;;27.22;100.00;100192.31;1753249;80;21060;-83
2021/08/31 10:20:03;;;;;;;42.95;37.98;;;;;;;27.14;100.00;100193.19;1752150;80;21524;-85
2021/08/31 10:22:31;;;;;;;43.85;38.10;;;;;;;27.08;100.00;100205.66;1734211;81;21019;-85
2021/08/31 10:24:59;;;;;;;42.23;36.75;;;;;;;26.97;100.00;100205.94;1726226;80;20998;-83
2021/08/31 10:27:39;;;;;;;43.63;38.67;;;;;;;26.81;100.00;100214.16;1714273;80;21082;-84
2021/08/31 10:30:24;;;;;;;48.73;39.67;;;;;;;26.70;100.00;100208.25;1744506;82;21448;-83
2021/08/31 10:32:58;;;;;;;51.23;39.30;;;;;;;26.63;100.00;100219.07;1749502;80;20991;-87
2021/08/31 10:35:46;;;;;;;45.92;40.08;;;;;;;26.49;100.00;100225.65;1752700;80;21079;-85
2021/08/31 10:38:14;;;;;;;43.92;39.18;;;;;;;26.36;100.00;100229.38;1734122;82;21534;-83
2021/08/31 10:40:44;;;;;;;45.43;38.65;;;;;;;26.25;100.00;100232.28;1733989;82;21770;-85
2021/08/31 10:43:14;;;;;;;46.18;37.80;;;;;;;26.14;100.00;100238.72;1744550;82;21126;-85
2021/08/31 10:45:46;;;;;;;42.70;38.17;;;;;;;26.05;100.00;100237.39;1744589;82;21117;-84
2021/08/31 10:48:27;;;;;;;44.55;36.90;;;;;;;25.97;100.00;100233.17;1719312;82;21055;-83
2021/08/31 10:51:03;;;;;;;47.95;40.08;;;;;;;25.94;100.00;100242.15;1723308;82;21106;-83
2021/08/31 10:53:47;;;;;;;47.70;37.85;;;;;;;25.87;100.00;100248.09;1744784;82;21137;-84
2021/08/31 10:56:27;;;;;;;45.92;39.27;;;;;;;25.82;100.00;100262.94;1733827;82;21636;-82
2021/08/31 10:59:01;;;;;;;43.63;38.25;;;;;;;25.77;100.00;100263.31;1744791;82;21012;-87
2021/08/31 11:01:41;;;;;;;40.15;35.55;;;;;;;25.75;100.00;100270.20;1760203;80;21078;-83
2021/08/31 11:04:33;;;;;;;45.92;37.80;;;;;;;25.76;100.00;100272.34;1704052;82;21082;-83
2021/08/31 11:07:04;;;;;;;44.93;37.67;;;;;;;25.74;100.00;100272.58;1713366;82;21493;-82
2021/08/31 11:09:31;;;;;;;;;;;;;;;25.72;100.00;100282.64;1747078;80;21061;-83
2021/08/31 11:12:11;;;;;;;45.48;38.55;;;;;;;25.67;100.00;100279.31;1773824;80;20209;-82